Time;durP1;ratioP1;P1;durP2;ratioP2;P2;SDS_P1;SDS_P2;PMS_P1;PMS_P2;Temp;Humidity;BMP_temperature;BMP_pressure;BME280_temperature;BME280_humidity;BME280_pressure;Samples;Min_cycle;Max_cycle;Signal;HPM_P1;HPM_P2
2023/03/04 00:00:00;;;;;;;14.03;9.20;;;8.10;99.90;;;7.97;70.78;94998.31;5036266;28;20969;-58
2023/03/04 00:02:27;;;;;;;18.70;11.47;;;8.10;99.90;;;7.98;70.58;94996.50;5039766;28;20487;-58
2023/03/04 00:04:54;;;;;;;15.00;10.30;;;8.10;99.90;;;7.98;70.69;94994.75;5038611;28;20981;-58
2023/03/04 00:07:22;;;;;;;14.27;10.70;;;8.20;99.90;;;7.99;70.79;94995.56;5031858;28;20530;-59
2023/03/04 00:09:49;;;;;;;15.63;11.23;;;8.10;99.90;;;7.99;70.37;94995.56;5038561;28;20952;-59
2023/03/04 00:12:18;;;;;;;14.13;10.13;;;8.10;99.90;;;7.98;70.65;94988.66;5034157;28;20640;-58
2023/03/04 00:14:46;;;;;;;16.40;10.73;;;8.20;99.90;;;7.98;70.46;94988.66;5035598;28;20461;-59
2023/03/04 00:17:15;;;;;;;17.17;11.27;;;8.10;99.90;;;7.97;70.87;94982.59;5042366;28;21022;-59
2023/03/04 00:19:42;;;;;;;21.63;12.13;;;8.10;99.90;;;7.96;70.30;94983.53;5035044;28;20455;-59
2023/03/04 00:22:10;;;;;;;14.00;11.60;;;8.10;99.90;;;7.95;70.47;94988.88;5038195;28;20480;-59
2023/03/04 00:24:38;;;;;;;14.70;11.00;;;8.10;99.90;;;7.89;70.62;94988.44;5045871;28;20562;-58
2023/03/04 00:27:05;;;;;;;13.90;10.90;;;8.10;99.90;;;7.87;70.93;94987.72;5038031;28;20543;-59
2023/03/04 00:29:32;;;;;;;14.57;10.23;;;8.10;99.90;;;7.84;70.42;94976.66;5044094;28;20456;-60
2023/03/04 00:32:00;;;;;;;15.40;10.50;;;8.00;99.90;;;7.81;70.96;94975.13;5036328;28;20479;-58
2023/03/04 00:34:28;;;;;;;11.47;9.10;;;8.00;99.90;;;7.80;70.51;94973.44;5037507;28;20491;-60
2023/03/04 00:37:00;;;;;;;15.00;10.20;;;8.00;99.90;;;7.77;70.66;94971.06;5035079;28;21031;-59
2023/03/04 00:39:27;;;;;;;12.20;9.80;;;7.90;99.90;;;7.75;70.99;94967.75;5040678;28;20448;-59
2023/03/04 00:41:54;;;;;;;13.03;10.23;;;7.90;99.90;;;7.72;71.11;94967.97;5037554;28;20469;-59
2023/03/04 00:44:22;;;;;;;11.60;10.00;;;7.90;99.90;;;7.70;70.72;94970.72;5034888;28;20457;-57
2023/03/04 00:46:49;;;;;;;17.30;11.33;;;7.90;99.90;;;7.70;70.50;94969.88;5034114;28;20495;-59
2023/03/04 00:49:16;;;;;;;17.33;11.63;;;7.90;99.90;;;7.71;71.02;94976.78;5032602;28;20511;-59
2023/03/04 00:51:45;;;;;;;14.43;10.80;;;7.90;99.90;;;7.70;70.46;94970.72;5039115;28;20484;-58
2023/03/04 00:54:12;;;;;;;15.40;9.87;;;7.90;99.90;;;7.73;70.68;94972.28;5033618;28;20500;-60
2023/03/04 00:56:40;;;;;;;11.63;9.17;;;7.90;99.90;;;7.74;70.45;94968.69;5029539;28;20476;-59
2023/03/04 00:59:07;;;;;;;15.30;11.03;;;7.90;99.90;;;7.76;70.74;94965.94;5035185;28;20448;-58
2023/03/04 01:01:34;;;;;;;15.77;9.57;;;7.90;99.90;;;7.79;70.67;94970.94;5034449;28;20476;-61
2023/03/04 01:04:03;;;;;;;15.30;10.87;;;7.90;99.90;;;7.80;70.34;94965.59;5032758;28;20464;-58
2023/03/04 01:06:30;;;;;;;15.17;10.00;;;7.90;99.90;;;7.83;70.40;94962.72;5030952;28;20473;-59
2023/03/04 01:08:59;;;;;;;15.73;10.70;;;8.00;99.90;;;7.85;70.40;94960.84;5034872;28;20894;-58
2023/03/04 01:11:26;;;;;;;16.00;9.70;;;8.00;99.90;;;7.87;70.31;94965.94;5035433;28;20522;-58
2023/03/04 01:13:53;;;;;;;12.47;9.80;;;8.00;99.90;;;7.88;69.72;94965.84;5033174;28;20499;-59
2023/03/04 01:16:21;;;;;;;12.40;9.57;;;8.00;99.90;;;7.89;70.34;94964.84;5034735;28;20570;-60
2023/03/04 01:18:48;;;;;;;13.57;9.90;;;8.00;99.90;;;7.91;69.92;94967.34;5034337;28;20498;-58
2023/03/04 01:21:15;;;;;;;14.37;10.03;;;8.10;99.90;;;7.93;69.93;94959.38;5033348;28;20793;-59
2023/03/04 01:23:42;;;;;;;13.30;9.70;;;8.10;99.90;;;7.93;69.81;94965.44;5036495;28;21010;-57
2023/03/04 01:26:11;;;;;;;19.10;10.30;;;8.10;99.90;;;7.94;70.14;94966.28;5038255;28;20480;-59
2023/03/04 01:28:38;;;;;;;12.73;9.47;;;8.10;99.90;;;7.96;69.63;94956.50;5036017;28;20527;-58
2023/03/04 01:31:06;;;;;;;20.63;10.70;;;8.10;99.90;;;7.95;69.49;94954.84;5035471;28;20986;-58
2023/03/04 01:33:33;;;;;;;15.47;10.10;;;8.10;99.90;;;7.97;69.82;94951.16;5035196;28;20495;-57
2023/03/04 01:36:00;;;;;;;13.53;10.30;;;8.10;99.90;;;7.97;69.61;94956.41;5030997;28;20466;-59
2023/03/04 01:38:28;;;;;;;15.60;11.30;;;8.10;99.90;;;7.99;69.78;94956.28;5041511;28;20452;-57
2023/03/04 01:40:55;;;;;;;12.67;9.67;;;8.10;99.90;;;7.98;69.65;94949.34;5038758;28;20480;-60
2023/03/04 01:43:25;;;;;;;14.93;11.00;;;8.10;99.90;;;7.97;69.72;94945.91;5034107;28;20488;-59
2023/03/04 01:45:53;;;;;;;13.10;10.43;;;8.20;99.90;;;7.96;69.35;94944.25;5041861;28;21068;-60
2023/03/04 01:48:24;;;;;;;13.83;9.73;;;8.10;99.90;;;7.95;69.70;94933.88;5034432;28;20454;-58
2023/03/04 01:50:51;;;;;;;13.17;10.70;;;8.10;99.90;;;7.94;69.23;94935.69;5032793;28;20441;-58
2023/03/04 01:53:21;;;;;;;12.30;9.03;;;8.10;99.90;;;7.93;69.30;94933.19;5038580;28;20562;-58
2023/03/04 01:55:49;;;;;;;15.53;10.23;;;8.10;99.90;;;7.90;69.69;94932.50;5035026;28;20540;-58
2023/03/04 01:58:16;;;;;;;14.63;10.17;;;8.00;99.90;;;7.89;69.48;94928.19;5038046;28;20970;-59
2023/03/04 02:00:45;;;;;;;13.00;9.87;;;8.00;99.90;;;7.88;69.23;94925.69;5035346;28;20999;-58
2023/03/04 02:03:14;;;;;;;13.77;10.10;;;8.00;99.90;;;7.86;69.24;94931.06;5038868;28;21240;-59
2023/03/04 02:05:43;;;;;;;13.57;10.83;;;8.00;99.90;;;7.82;69.09;94927.03;5037151;28;20481;-59
2023/03/04 02:08:10;;;;;;;14.17;9.50;;;8.00;99.90;;;7.81;69.32;94925.38;5037891;28;20919;-60
2023/03/04 02:10:37;;;;;;;12.77;9.63;;;8.00;99.90;;;7.80;69.49;94923.69;5034839;28;20489;-59
2023/03/04 02:13:05;;;;;;;11.03;8.70;;;8.00;99.90;;;7.78;69.27;94917.75;5042037;28;20577;-58
2023/03/04 02:15:32;;;;;;;15.53;10.63;;;8.00;99.90;;;7.78;69.04;94925.59;5034831;28;20513;-59
2023/03/04 02:18:01;;;;;;;14.97;10.07;;;7.90;99.90;;;7.79;69.59;94924.66;5036308;28;20911;-58
2023/03/04 02:20:42;;;;;;;14.90;10.00;;;7.90;99.90;;;7.79;69.49;94921.19;5039571;28;21079;-59
2023/03/04 02:23:13;;;;;;;16.67;10.27;;;8.00;99.90;;;7.77;69.52;94917.88;5038579;28;20485;-58
2023/03/04 02:25:46;;;;;;;11.73;10.00;;;7.90;99.90;;;7.76;69.52;94917.06;5042173;28;20539;-59
2023/03/04 02:28:14;;;;;;;10.80;9.50;;;7.90;99.90;;;7.78;69.11;94922.16;5038718;28;20567;-60
2023/03/04 02:30:41;;;;;;;14.10;9.87;;;8.00;99.90;;;7.78;69.26;94915.13;5041728;28;20471;-59
2023/03/04 02:33:14;;;;;;;14.90;9.50;;;7.90;99.90;;;7.78;69.46;94923.00;5042776;28;20992;-59
2023/03/04 02:35:42;;;;;;;15.10;9.80;;;7.90;99.90;;;7.77;69.38;94923.94;5041514;28;20536;-60
2023/03/04 02:38:10;;;;;;;12.43;9.17;;;7.90;99.90;;;7.76;69.08;94917.06;5040702;28;20536;-57
2023/03/04 02:40:37;;;;;;;13.20;9.60;;;7.90;99.90;;;7.74;69.14;94918.94;5040800;28;20456;-59
2023/03/04 02:43:04;;;;;;;12.13;9.97;;;7.90;99.90;;;7.73;69.27;94917.28;5046669;28;20475;-58
2023/03/04 02:45:42;;;;;;;18.43;10.50;;;7.90;99.90;;;7.72;68.85;94905.16;5042595;28;20875;-57
2023/03/04 02:48:10;;;;;;;24.03;10.43;;;7.90;99.90;;;7.71;69.65;94908.72;5038855;28;20484;-58
2023/03/04 02:50:41;;;;;;;13.30;9.60;;;7.90;99.90;;;7.69;68.99;94900.97;5037591;28;20457;-58
2023/03/04 02:53:08;;;;;;;17.10;9.73;;;7.90;99.90;;;7.68;69.57;94903.72;5043592;28;21106;-58
2023/03/04 02:55:35;;;;;;;14.03;10.20;;;7.90;99.90;;;7.66;69.09;94898.59;5031749;28;20449;-58
2023/03/04 02:58:03;;;;;;;16.23;9.97;;;7.80;99.90;;;7.65;69.24;94890.88;5039772;28;21060;-59
2023/03/04 03:00:30;;;;;;;21.13;12.97;;;7.80;99.90;;;7.65;69.12;94893.47;5038823;28;20464;-57
2023/03/04 03:02:58;;;;;;;16.87;11.47;;;7.80;99.90;;;7.62;69.13;94901.56;5037307;28;20483;-60
2023/03/04 03:05:28;;;;;;;14.13;10.63;;;7.80;99.90;;;7.61;69.02;94907.78;5036494;28;20457;-58
2023/03/04 03:07:55;;;;;;;16.50;10.70;;;7.80;99.90;;;7.58;69.79;94906.22;5040747;28;21034;-59
2023/03/04 03:10:22;;;;;;;16.13;9.77;;;7.80;99.90;;;7.56;69.66;94899.44;5039469;28;20460;-59
2023/03/04 03:12:49;;;;;;;14.40;10.30;;;7.80;99.90;;;7.54;69.39;94907.41;5046339;28;21161;-58
2023/03/04 03:15:17;;;;;;;16.77;11.37;;;7.70;99.90;;;7.52;69.71;94912.78;5039862;28;20496;-58
2023/03/04 03:17:44;;;;;;;19.50;11.30;;;7.70;99.90;;;7.50;69.44;94913.88;5037265;28;21004;-58
2023/03/04 03:20:14;;;;;;;16.40;10.77;;;7.70;99.90;;;7.47;69.17;94909.69;5042448;28;20515;-58
2023/03/04 03:22:41;;;;;;;17.27;9.60;;;7.70;99.90;;;7.44;69.64;94902.06;5034488;28;20479;-58
2023/03/04 03:25:09;;;;;;;17.07;11.30;;;7.60;99.90;;;7.41;70.02;94901.50;5039324;28;20969;-59
2023/03/04 03:27:37;;;;;;;12.83;9.80;;;7.60;99.90;;;7.38;69.44;94902.56;5035284;28;20480;-59
2023/03/04 03:30:05;;;;;;;14.27;10.57;;;7.60;99.90;;;7.34;69.90;94899.34;5034795;28;20456;-58
2023/03/04 03:32:32;;;;;;;13.93;9.90;;;7.50;99.90;;;7.32;69.83;94905.66;5038017;28;20510;-59
2023/03/04 03:34:59;;;;;;;13.40;10.33;;;7.50;99.90;;;7.30;69.90;94902.34;5033931;28;20607;-59
2023/03/04 03:37:28;;;;;;;23.03;11.40;;;7.50;99.90;;;7.27;69.54;94899.94;5034860;28;20531;-58
2023/03/04 03:39:55;;;;;;;19.30;12.80;;;7.50;99.90;;;7.25;69.87;94904.44;5039603;28;20444;-57
2023/03/04 03:42:23;;;;;;;20.00;12.00;;;7.50;99.90;;;7.22;69.71;94894.22;5035237;28;20563;-58
2023/03/04 03:44:50;;;;;;;19.30;11.53;;;7.40;99.90;;;7.17;69.66;94897.19;5035956;28;20463;-58
2023/03/04 03:47:17;;;;;;;21.70;12.20;;;7.40;99.90;;;7.14;69.86;94900.91;5031598;28;20484;-58
2023/03/04 03:49:44;;;;;;;16.93;11.33;;;7.30;99.90;;;7.10;70.00;94899.47;5040273;28;20523;-58
2023/03/04 03:52:12;;;;;;;19.87;12.53;;;7.30;99.90;;;7.08;70.42;94895.28;5037461;28;20475;-58
2023/03/04 03:54:40;;;;;;;29.30;18.03;;;7.30;99.90;;;7.04;70.18;94892.09;5038166;28;20495;-59
2023/03/04 03:57:07;;;;;;;31.90;17.50;;;7.20;99.90;;;7.01;70.50;94892.31;5040960;28;20786;-58
2023/03/04 03:59:35;;;;;;;24.53;13.77;;;7.20;99.90;;;6.97;69.99;94898.72;5038122;28;20468;-60
2023/03/04 04:02:02;;;;;;;19.67;12.63;;;7.20;99.90;;;6.95;70.43;94890.16;5039700;28;20528;-57
2023/03/04 04:04:29;;;;;;;18.30;12.00;;;7.20;99.90;;;6.93;70.27;94886.84;5036396;28;20497;-58
2023/03/04 04:06:57;;;;;;;22.60;12.33;;;7.10;99.90;;;6.91;69.98;94883.50;5031571;28;20481;-57
2023/03/04 04:09:24;;;;;;;23.63;11.23;;;7.10;99.90;;;6.89;70.07;94881.00;5036151;28;20460;-57
2023/03/04 04:11:52;;;;;;;19.17;12.37;;;7.10;99.90;;;6.82;70.70;94878.03;5037872;28;20544;-59
2023/03/04 04:14:20;;;;;;;17.47;12.77;;;7.10;99.90;;;6.82;71.00;94880.66;5038544;28;20494;-58
2023/03/04 04:16:47;;;;;;;20.03;12.13;;;7.10;99.90;;;6.80;70.94;94882.56;5031468;28;20472;-59
2023/03/04 04:19:17;;;;;;;19.67;12.47;;;7.00;99.90;;;6.78;70.64;94879.22;5037818;28;20530;-58
2023/03/04 04:21:44;;;;;;;17.33;11.47;;;7.00;99.90;;;6.74;70.68;94874.31;5039028;28;20566;-60
2023/03/04 04:24:12;;;;;;;16.70;11.50;;;7.00;99.90;;;6.73;70.59;94883.13;5045851;28;20998;-58
2023/03/04 04:26:39;;;;;;;17.43;11.60;;;7.00;99.90;;;6.70;70.60;94881.56;5035836;28;20571;-58
2023/03/04 04:29:08;;;;;;;16.87;10.60;;;6.90;99.90;;;6.68;70.85;94880.00;5039355;28;20448;-58
2023/03/04 04:31:35;;;;;;;18.43;11.67;;;6.90;99.90;;;6.65;70.55;94878.50;5034461;28;20480;-58
2023/03/04 04:34:02;;;;;;;18.53;11.47;;;6.90;99.90;;;6.63;70.63;94880.38;5035247;28;20495;-58
2023/03/04 04:36:30;;;;;;;15.57;11.40;;;6.90;99.90;;;6.61;70.88;94882.28;5037432;28;20480;-58
2023/03/04 04:38:57;;;;;;;19.00;11.80;;;6.80;99.90;;;6.57;70.95;94891.31;5042088;28;20858;-58
2023/03/04 04:41:26;;;;;;;20.50;11.63;;;6.80;99.90;;;6.54;71.16;94887.13;5038979;28;20483;-59
2023/03/04 04:43:53;;;;;;;21.20;12.77;;;6.80;99.90;;;6.51;71.10;94881.31;5037839;28;21012;-59
2023/03/04 04:46:22;;;;;;;31.57;16.70;;;6.70;99.90;;;6.48;71.22;94882.38;5038879;28;20893;-58
2023/03/04 04:48:49;;;;;;;35.07;16.77;;;6.70;99.90;;;6.46;70.57;94885.09;5034481;28;20518;-58
2023/03/04 04:51:17;;;;;;;63.23;26.60;;;6.70;99.90;;;6.44;71.21;94878.31;5038271;28;20475;-58
2023/03/04 04:53:44;;;;;;;227.37;77.07;;;6.70;99.90;;;6.42;70.83;94882.81;5038799;28;20875;-59
2023/03/04 04:56:13;;;;;;;125.87;43.60;;;6.70;99.90;;;6.39;71.21;94886.50;5032994;28;20487;-59
2023/03/04 04:58:40;;;;;;;55.30;24.63;;;6.70;99.90;;;6.36;70.88;94885.88;5033495;28;20519;-58
2023/03/04 05:01:08;;;;;;;33.20;17.93;;;6.60;99.90;;;6.33;70.97;94894.78;5035854;28;20512;-59
2023/03/04 05:03:37;;;;;;;27.07;15.13;;;6.60;99.90;;;6.32;71.04;94894.88;5037291;28;20466;-59
2023/03/04 05:06:05;;;;;;;23.33;13.90;;;6.50;99.90;;;6.30;70.53;94902.03;5028978;28;20467;-58
2023/03/04 05:08:32;;;;;;;19.20;12.63;;;6.60;99.90;;;6.27;70.71;94903.06;5038547;28;20477;-58
2023/03/04 05:11:00;;;;;;;17.83;13.10;;;6.50;99.90;;;6.24;71.11;94900.69;5033046;28;20597;-58
2023/03/04 05:13:27;;;;;;;17.83;11.57;;;6.50;99.90;;;6.25;71.05;94912.81;5046412;28;20510;-59
2023/03/04 05:15:55;;;;;;;23.93;13.73;;;6.50;99.90;;;6.25;70.66;94916.25;5032912;28;20493;-58
2023/03/04 05:18:23;;;;;;;26.80;13.40;;;6.50;99.90;;;6.24;71.00;94911.13;5037420;28;20457;-58
2023/03/04 05:20:56;;;;;;;19.83;12.97;;;6.50;99.90;;;6.23;70.99;94915.53;5029879;28;20547;-57
2023/03/04 05:23:23;;;;;;;16.77;11.63;;;6.50;99.90;;;6.24;70.81;94918.97;5033157;28;20459;-58
2023/03/04 05:25:50;;;;;;;16.90;12.50;;;6.50;99.90;;;6.25;71.37;94918.03;5035197;28;20455;-59
2023/03/04 05:28:18;;;;;;;19.07;12.13;;;6.50;99.90;;;6.26;71.65;94915.31;5042660;28;20479;-60
2023/03/04 05:30:45;;;;;;;19.80;12.50;;;6.50;99.90;;;6.29;71.49;94919.47;5029291;28;20451;-58
2023/03/04 05:33:13;;;;;;;22.37;13.83;;;6.50;99.90;;;6.33;71.02;94926.13;5036206;28;20511;-57
2023/03/04 05:35:41;;;;;;;18.70;13.10;;;6.60;99.90;;;6.36;71.07;94919.84;5031152;28;20634;-59
2023/03/04 05:38:11;;;;;;;17.97;11.43;;;6.60;99.90;;;6.41;71.01;94922.94;5037255;28;20477;-58
2023/03/04 05:40:39;;;;;;;26.03;13.10;;;6.60;99.90;;;6.45;71.42;94927.84;5037341;28;20445;-60
2023/03/04 05:43:06;;;;;;;21.90;12.10;;;6.60;99.90;;;6.50;71.94;94924.06;5033124;28;20471;-58
2023/03/04 05:45:33;;;;;;;20.00;12.40;;;6.70;99.90;;;6.55;71.45;94921.94;5036108;28;20997;-59
2023/03/04 05:48:01;;;;;;;18.43;12.57;;;6.80;99.90;;;6.60;71.69;94917.19;5034491;28;20532;-58
2023/03/04 05:50:29;;;;;;;20.03;13.00;;;6.80;99.90;;;6.66;71.04;94929.78;5035010;28;20455;-58
2023/03/04 05:52:56;;;;;;;18.90;12.27;;;6.90;99.90;;;6.74;71.35;94930.06;5036308;28;20566;-58
2023/03/04 05:55:26;;;;;;;29.07;17.40;;;6.90;99.90;;;6.82;70.87;94937.34;5031975;28;20488;-57
2023/03/04 05:57:53;;;;;;;26.47;14.40;;;7.00;99.90;;;6.87;71.29;94934.38;5035551;28;20587;-57
2023/03/04 06:00:21;;;;;;;22.83;14.70;;;7.00;99.90;;;6.92;71.53;94935.69;5036490;28;20487;-60
2023/03/04 06:02:48;;;;;;;25.87;14.80;;;7.10;99.90;;;6.98;71.56;94940.44;5046708;28;20478;-59
2023/03/04 06:05:15;;;;;;;22.33;13.33;;;7.20;99.90;;;7.05;71.35;94943.44;5042728;28;20467;-60
2023/03/04 06:07:43;;;;;;;18.63;13.07;;;7.20;99.90;;;7.11;70.95;94947.34;5049972;28;20482;-58
2023/03/04 06:10:12;;;;;;;22.13;13.23;;;7.30;99.90;;;7.17;71.24;94945.13;5036633;28;20482;-59
2023/03/04 06:12:40;;;;;;;25.80;13.93;;;7.40;99.90;;;7.23;71.03;94940.38;5045664;28;20480;-59
2023/03/04 06:15:09;;;;;;;23.60;13.77;;;7.40;99.90;;;7.29;71.01;94947.75;5039336;28;20501;-59
2023/03/04 06:17:37;;;;;;;21.37;14.00;;;7.50;99.90;;;7.36;70.47;94946.34;5040514;28;20583;-58
2023/03/04 06:20:06;;;;;;;25.20;15.27;;;7.50;99.90;;;7.42;71.21;94947.63;5037937;28;20818;-59
2023/03/04 06:22:33;;;;;;;35.50;15.07;;;7.60;99.90;;;7.47;70.81;94951.56;5047463;28;21361;-60
2023/03/04 06:25:00;;;;;;;18.40;12.83;;;7.60;99.90;;;7.54;70.43;94955.38;5038049;28;20976;-59
2023/03/04 06:27:28;;;;;;;22.13;13.53;;;7.70;99.90;;;7.60;70.34;94956.66;5038192;28;20472;-59
2023/03/04 06:29:56;;;;;;;20.73;13.27;;;7.80;99.90;;;7.68;70.60;94956.06;5039865;28;20463;-59
2023/03/04 06:32:23;;;;;;;18.93;12.20;;;7.90;99.90;;;7.76;70.00;94964.19;5031012;28;20860;-60
2023/03/04 06:34:51;;;;;;;20.33;12.20;;;7.90;99.90;;;7.82;70.04;94953.22;5038693;28;20546;-59
2023/03/04 06:37:18;;;;;;;21.33;11.33;;;8.00;99.90;;;7.89;69.74;94958.78;5036409;28;20475;-58
2023/03/04 06:39:45;;;;;;;16.20;11.00;;;8.00;99.90;;;7.96;69.29;94959.13;5041413;28;20959;-60
2023/03/04 06:42:13;;;;;;;16.20;12.47;;;8.10;99.90;;;8.01;69.17;94956.97;5035049;28;20472;-60
2023/03/04 06:44:40;;;;;;;19.37;11.20;;;8.20;99.90;;;8.10;68.98;94958.84;5041957;28;20501;-59
2023/03/04 06:47:09;;;;;;;20.50;8.40;;;8.20;99.90;;;8.18;68.69;94964.34;5037552;28;20468;-58
2023/03/04 06:49:36;;;;;;;11.93;8.03;;;8.30;99.90;;;8.25;68.24;94962.06;5041399;28;20458;-58
2023/03/04 06:52:03;;;;;;;11.40;7.90;;;8.40;99.90;;;8.29;67.66;94970.50;5036223;28;21011;-59
2023/03/04 06:54:30;;;;;;;11.17;7.87;;;8.40;99.90;;;8.31;67.52;94958.94;5037233;28;20487;-59
2023/03/04 06:56:58;;;;;;;15.93;9.43;;;8.50;99.90;;;8.35;67.71;94967.38;5034304;28;20914;-59
2023/03/04 06:59:25;;;;;;;11.57;8.40;;;8.50;99.90;;;8.39;67.76;94967.00;5043068;28;20455;-60
2023/03/04 07:01:52;;;;;;;12.67;9.20;;;8.50;99.90;;;8.43;67.19;94970.22;5037069;28;20981;-59
2023/03/04 07:04:22;;;;;;;11.10;7.73;;;8.60;99.90;;;8.47;67.27;94976.06;5032854;28;20455;-59
2023/03/04 07:06:49;;;;;;;13.43;7.80;;;8.60;99.90;;;8.50;67.34;94976.66;5032562;28;20469;-59
2023/03/04 07:09:16;;;;;;;12.40;8.00;;;8.60;99.90;;;8.52;66.49;94971.28;5038640;28;20464;-59
2023/03/04 07:11:44;;;;;;;17.17;9.07;;;8.70;99.90;;;8.53;66.47;94979.03;5040389;28;20472;-58
2023/03/04 07:14:11;;;;;;;12.00;9.80;;;8.70;99.90;;;8.53;66.84;94979.03;5034150;28;20452;-59
2023/03/04 07:16:39;;;;;;;12.00;8.63;;;8.70;99.90;;;8.54;66.80;94975.47;5037923;28;20488;-61
2023/03/04 07:19:06;;;;;;;13.70;9.33;;;8.70;99.90;;;8.56;66.98;94984.00;5037144;28;20460;-59
2023/03/04 07:21:34;;;;;;;13.87;8.27;;;8.70;99.90;;;8.57;66.36;94985.69;5041607;28;20480;-59
2023/03/04 07:24:02;;;;;;;10.27;8.27;;;8.70;99.90;;;8.56;66.51;94983.19;5035757;28;20464;-60
2023/03/04 07:26:30;;;;;;;14.47;9.50;;;8.70;99.90;;;8.58;66.47;94984.75;5034619;28;21080;-59
2023/03/04 07:28:58;;;;;;;14.67;8.13;;;8.70;99.90;;;8.63;66.45;94988.75;5033927;28;20453;-59
2023/03/04 07:31:28;;;;;;;15.37;8.90;;;8.70;99.90;;;8.66;66.41;94978.03;5039664;28;20464;-59
2023/03/04 07:33:57;;;;;;;27.60;10.20;;;8.80;99.90;;;8.74;66.04;94986.94;5036611;28;20488;-58
2023/03/04 07:36:25;;;;;;;20.57;10.00;;;8.90;99.90;;;8.82;66.19;94981.06;5033984;28;20501;-60
2023/03/04 07:38:54;;;;;;;28.57;10.60;;;8.90;99.90;;;8.89;65.93;94974.38;5034211;28;20527;-61
2023/03/04 07:41:22;;;;;;;12.17;9.13;;;9.00;99.90;;;8.98;65.20;94980.63;5037723;28;20512;-60
2023/03/04 07:43:49;;;;;;;15.27;10.13;;;9.10;99.90;;;9.02;65.60;94978.59;5033619;28;20843;-60
2023/03/04 07:46:17;;;;;;;23.50;10.73;;;9.20;99.90;;;9.19;65.75;94977.19;5032698;28;20472;-58
2023/03/04 07:48:44;;;;;;;15.50;10.43;;;9.30;99.90;;;9.34;64.66;94975.88;5037355;28;20532;-60
2023/03/04 07:51:13;;;;;;;21.67;11.47;;;9.40;99.90;;;9.41;62.84;94970.94;5045258;28;20484;-59
2023/03/04 07:53:42;;;;;;;20.33;10.50;;;9.60;99.90;;;9.41;64.54;94971.78;5033912;28;20445;-59
2023/03/04 07:56:12;;;;;;;19.17;10.87;;;9.60;99.90;;;9.46;64.25;94966.13;5036811;28;20506;-59
2023/03/04 07:58:39;;;;;;;23.17;10.50;;;9.60;99.90;;;9.48;64.45;94974.69;5042726;28;20467;-60
2023/03/04 08:01:10;;;;;;;22.43;10.93;;;9.60;99.90;;;9.52;64.58;94970.84;5035826;28;20462;-59
2023/03/04 08:03:38;;;;;;;17.00;9.77;;;9.70;99.90;;;9.54;62.94;94968.09;5044700;28;20455;-60
2023/03/04 08:06:07;;;;;;;14.80;9.77;;;9.70;99.90;;;9.50;63.51;94970.16;5034410;28;20511;-60
2023/03/04 08:08:34;;;;;;;17.83;10.50;;;9.70;99.90;;;9.44;63.33;94965.44;5030845;28;21507;-59
2023/03/04 08:11:04;;;;;;;16.27;10.40;;;9.60;99.90;;;9.38;62.91;94958.91;5042311;28;20513;-59
2023/03/04 08:13:33;;;;;;;18.13;10.47;;;9.60;99.90;;;9.32;63.35;94962.88;5037680;28;20452;-59
2023/03/04 08:16:00;;;;;;;18.43;10.80;;;9.50;99.90;;;9.31;64.09;94963.00;5038962;28;21134;-60
2023/03/04 08:18:28;;;;;;;28.57;12.37;;;9.50;99.90;;;9.30;64.12;94967.44;5033274;28;20468;-59
2023/03/04 08:20:55;;;;;;;17.80;9.90;;;9.40;99.90;;;9.30;63.52;94964.81;5037219;28;21312;-59
2023/03/04 08:23:22;;;;;;;16.20;10.50;;;9.40;99.90;;;9.28;63.56;94969.38;5038738;28;20536;-58
2023/03/04 08:25:50;;;;;;;15.33;9.87;;;9.40;99.90;;;9.24;63.68;94965.31;5034237;28;20464;-59
2023/03/04 08:28:17;;;;;;;16.30;11.13;;;9.40;99.90;;;9.23;64.02;94965.44;5035670;28;20530;-59
2023/03/04 08:30:51;;;;;;;24.23;12.20;;;9.40;99.90;;;9.26;64.22;94965.19;5032151;28;20610;-59
2023/03/04 08:33:19;;;;;;;27.33;12.53;;;9.40;99.90;;;9.32;64.41;94969.94;5037752;28;20446;-58
2023/03/04 08:35:46;;;;;;;22.00;11.63;;;9.40;99.90;;;9.39;64.04;94960.59;5040947;28;20503;-58
2023/03/04 08:38:13;;;;;;;20.00;10.73;;;9.50;99.90;;;9.42;63.25;94954.22;5040422;28;20483;-60
2023/03/04 08:40:40;;;;;;;16.80;10.83;;;9.50;99.90;;;9.36;62.60;94960.84;5033379;28;20838;-60
2023/03/04 08:43:08;;;;;;;17.20;10.67;;;9.50;99.90;;;9.29;62.98;94957.06;5039707;28;20490;-59
2023/03/04 08:45:35;;;;;;;18.07;11.20;;;9.40;99.90;;;9.23;63.54;94957.56;5039863;28;20575;-58
2023/03/04 08:48:04;;;;;;;19.10;10.80;;;9.40;99.90;;;9.20;63.65;94956.06;5040278;28;20480;-60
2023/03/04 08:50:31;;;;;;;23.40;9.60;;;9.40;99.90;;;9.19;63.49;94954.41;5038396;28;20460;-60
2023/03/04 08:52:59;;;;;;;30.03;11.43;;;9.40;99.90;;;9.21;64.07;94949.84;5037466;28;20484;-60
2023/03/04 08:55:27;;;;;;;20.03;10.53;;;9.40;99.90;;;9.27;64.02;94945.88;5033728;28;20499;-58
2023/03/04 08:57:54;;;;;;;15.53;10.33;;;9.40;99.90;;;9.33;63.71;94951.41;5036153;28;20499;-63
2023/03/04 09:00:22;;;;;;;15.90;9.90;;;9.40;99.90;;;9.37;63.73;94945.91;5034186;28;20460;-58
2023/03/04 09:02:49;;;;;;;17.20;10.47;;;9.50;99.90;;;9.41;63.85;94947.31;5040728;28;20799;-59
2023/03/04 09:05:18;;;;;;;19.70;11.27;;;9.50;99.90;;;9.45;63.48;94943.47;5029925;28;20461;-59
2023/03/04 09:07:46;;;;;;;16.93;9.87;;;9.50;99.90;;;9.50;63.29;94946.53;5033826;28;20480;-61
2023/03/04 09:10:13;;;;;;;19.40;8.80;;;9.60;99.90;;;9.54;63.33;94942.66;5038887;28;20464;-60
2023/03/04 09:12:40;;;;;;;21.83;9.07;;;9.70;99.90;;;9.60;63.03;94936.88;5036554;28;20513;-61
2023/03/04 09:15:09;;;;;;;20.73;10.60;;;9.70;99.90;;;9.66;62.50;94933.72;5034247;28;20534;-59
2023/03/04 09:17:36;;;;;;;15.77;8.97;;;9.80;99.90;;;9.72;62.48;94932.38;5031513;28;20574;-60
2023/03/04 09:20:07;;;;;;;17.33;9.50;;;9.80;99.90;;;9.82;62.54;94929.78;5032856;28;20453;-60
2023/03/04 09:22:37;;;;;;;21.03;9.83;;;9.90;99.90;;;9.89;61.96;94936.16;5036218;28;20490;-59
2023/03/04 09:25:05;;;;;;;15.30;9.53;;;10.00;99.60;;;9.92;60.88;94930.66;5036885;28;20525;-59
2023/03/04 09:27:33;;;;;;;11.10;8.80;;;10.00;98.90;;;9.93;61.38;94924.44;5033875;28;21039;-60
2023/03/04 09:30:00;;;;;;;12.00;8.70;;;10.00;99.00;;;9.95;61.72;94930.38;5034247;28;20960;-60
2023/03/04 09:32:27;;;;;;;17.80;9.80;;;10.10;99.30;;;9.99;60.27;94923.91;5031694;28;20487;-61
2023/03/04 09:34:54;;;;;;;15.07;8.63;;;10.10;98.40;;;10.00;60.55;94925.53;5038635;28;20574;-60
2023/03/04 09:37:22;;;;;;;12.30;8.23;;;10.10;98.30;;;10.00;59.32;94928.16;5024240;28;20511;-60
2023/03/04 09:39:50;;;;;;;12.63;9.10;;;10.10;97.50;;;9.98;60.19;94919.59;5021640;28;20474;-61
2023/03/04 09:42:25;;;;;;;18.60;8.83;;;10.10;98.00;;;10.01;60.76;94927.22;5026429;28;20481;-60
2023/03/04 09:44:52;;;;;;;16.97;9.27;;;10.10;98.50;;;10.09;60.65;94920.47;5029268;28;20452;-60
2023/03/04 09:47:20;;;;;;;15.87;9.60;;;10.20;98.50;;;10.19;61.46;94918.66;5032167;28;20559;-60
2023/03/04 09:49:54;;;;;;;20.10;10.13;;;10.30;98.90;;;10.33;60.50;94918.31;5032657;28;20460;-59
2023/03/04 09:52:30;;;;;;;16.53;10.70;;;10.40;98.60;;;10.48;60.59;94920.53;5032126;28;20535;-58
2023/03/04 09:55:05;;;;;;;19.50;8.90;;;10.50;98.70;;;10.59;59.10;94912.50;5031223;28;20526;-58
2023/03/04 09:57:44;;;;;;;25.00;9.97;;;10.60;97.40;;;10.63;59.36;94908.63;5035989;28;20487;-62
2023/03/04 10:00:18;;;;;;;17.30;9.63;;;10.70;97.50;;;10.70;59.69;94907.09;5030298;28;21390;-60
2023/03/04 10:03:02;;;;;;;15.30;9.20;;;10.80;97.70;;;10.83;59.53;94912.06;5037588;28;20474;-59
2023/03/04 10:05:29;;;;;;;15.33;9.93;;;10.80;97.50;;;10.93;58.53;94904.97;5041393;28;20456;-60
2023/03/04 10:07:58;;;;;;;13.43;9.67;;;11.00;96.90;;;11.04;58.80;94901.34;5033131;28;20480;-59
2023/03/04 10:10:30;;;;;;;19.27;9.67;;;11.10;97.30;;;11.15;59.46;94896.91;5033835;28;20532;-58
2023/03/04 10:12:57;;;;;;;14.97;9.20;;;11.20;97.40;;;11.25;58.99;94895.91;5027104;28;20487;-59
2023/03/04 10:15:30;;;;;;;17.93;9.97;;;11.30;97.60;;;11.36;59.12;94899.34;5034007;28;20460;-60
2023/03/04 10:18:01;;;;;;;15.57;10.60;;;11.40;97.40;;;11.44;58.79;94888.91;5036660;28;20476;-61
2023/03/04 10:20:33;;;;;;;14.43;9.37;;;11.50;97.10;;;11.49;58.23;94884.03;5032280;28;20487;-62
2023/03/04 10:23:05;;;;;;;20.53;10.30;;;11.60;96.80;;;11.47;58.43;94886.81;5033804;28;20479;-59